| time (UTC) | temp C | wind direction | speed KPH | gust KPH | rain 1hr cm | rain 24hr cm | rain mn cm | humidity % | barometer mb |
| 20260507124601 | 12 | 69 | 0.0 | 3.2 | 0.00 | 0.00 | 0.00 | 90 | 1016.1 |
| 20260507123058 | 12 | 69 | 0.0 | 3.2 | 0.00 | 0.00 | 0.00 | 90 | 1016.0 |
| 20260507121602 | 12 | 0 | 0.0 | 3.2 | 0.00 | 0.00 | 0.00 | 90 | 1016.1 |
| 20260507120106 | 13 | 0 | 0.0 | 3.2 | 0.00 | 0.00 | 0.00 | 90 | 1016.1 |
| 20260507114559 | 13 | 0 | 0.0 | 1.6 | 0.00 | 0.00 | 0.00 | 91 | 1016.1 |
| 20260507113059 | 13 | 0 | 0.0 | 0.0 | 0.00 | 0.00 | 0.00 | 90 | 1016.0 |
| 20260507111555 | 13 | 0 | 0.0 | 1.6 | 0.00 | 0.00 | 0.00 | 90 | 1016.0 |
| 20260507110100 | 13 | 0 | 0.0 | 1.6 | 0.00 | 0.00 | 0.00 | 90 | 1016.1 |
| 20260507104601 | 13 | 0 | 0.0 | 3.2 | 0.00 | 0.00 | 0.00 | 90 | 1016.2 |
| 20260507103127 | 13 | 0 | 0.0 | 3.2 | 0.00 | 0.00 | 0.00 | 90 | 1016.2 |
| 20260507101555 | 13 | 0 | 0.0 | 3.2 | 0.00 | 0.00 | 0.00 | 89 | 1016.2 |
| 20260507100110 | 13 | 0 | 0.0 | 3.2 | 0.00 | 0.00 | 0.00 | 89 | 1016.2 |
| 20260507094553 | 13 | 0 | 0.0 | 3.2 | 0.00 | 0.00 | 0.00 | 89 | 1016.4 |
| 20260507093052 | 13 | 58 | 0.0 | 3.2 | 0.00 | 0.00 | 0.00 | 89 | 1016.5 |
| 20260507091554 | 13 | 0 | 0.0 | 3.2 | 0.00 | 0.00 | 0.00 | 88 | 1016.6 |
| 20260507084604 | 14 | 18 | 0.0 | 1.6 | 0.00 | 0.00 | 0.00 | 88 | 1016.8 |
| 20260507083057 | 14 | 9 | 1.6 | 4.8 | 0.00 | 0.00 | 0.00 | 88 | 1017.1 |
| 20260507081559 | 15 | 9 | 0.0 | 3.2 | 0.00 | 0.00 | 0.00 | 89 | 1017.3 |
| 20260507080056 | 14 | 0 | 0.0 | 1.6 | 0.00 | 0.00 | 0.00 | 90 | 1017.4 |
| 20260507074600 | 14 | 210 | 0.0 | 3.2 | 0.00 | 0.00 | 0.00 | 90 | 1017.4 |
| 20260507073057 | 14 | 0 | 0.0 | 1.6 | 0.00 | 0.00 | 0.00 | 89 | 1017.4 |
| 20260507071605 | 15 | 0 | 0.0 | 0.0 | 0.00 | 0.00 | 0.00 | 89 | 1017.3 |
| 20260507070108 | 15 | 0 | 0.0 | 3.2 | 0.00 | 0.00 | 0.00 | 89 | 1017.4 |
| 20260507064559 | 15 | 0 | 0.0 | 3.2 | 0.00 | 0.00 | 0.00 | 88 | 1017.6 |
| 20260507063059 | 15 | 274 | 1.6 | 4.8 | 0.00 | 0.00 | 0.00 | 87 | 1017.6 |
| 20260507061558 | 15 | 260 | 1.6 | 4.8 | 0.00 | 0.00 | 0.00 | 86 | 1017.5 |
| 20260507060058 | 15 | 269 | 1.6 | 4.8 | 0.00 | 0.00 | 0.00 | 85 | 1017.6 |
| 20260507054612 | 15 | 262 | 1.6 | 4.8 | 0.00 | 0.00 | 0.00 | 84 | 1017.6 |
| 20260507053105 | 15 | 281 | 1.6 | 6.4 | 0.00 | 0.00 | 0.00 | 85 | 1017.7 |
| 20260507051559 | 15 | 277 | 3.2 | 4.8 | 0.00 | 0.00 | 0.00 | 85 | 1017.7 |
| 20260507050058 | 15 | 277 | 1.6 | 4.8 | 0.00 | 0.00 | 0.00 | 85 | 1017.6 |
| 20260507044559 | 15 | 267 | 3.2 | 4.8 | 0.00 | 0.00 | 0.00 | 84 | 1017.6 |
| 20260507043054 | 15 | 278 | 3.2 | 6.4 | 0.00 | 0.00 | 0.00 | 83 | 1017.5 |
| 20260507041604 | 15 | 270 | 3.2 | 9.7 | 0.00 | 0.00 | 0.00 | 82 | 1017.6 |
| 20260507040056 | 15 | 360 | 3.2 | 9.7 | 0.00 | 0.00 | 0.00 | 82 | 1017.3 |
| 20260507034600 | 16 | 360 | 4.8 | 12.9 | 0.00 | 0.00 | 0.00 | 82 | 1017.2 |
| 20260507033055 | 16 | 360 | 4.8 | 11.3 | 0.00 | 0.00 | 0.00 | 83 | 1017.1 |
| 20260507031555 | 16 | 265 | 4.8 | 11.3 | 0.00 | 0.00 | 0.00 | 83 | 1016.9 |
| 20260507030101 | 16 | 273 | 4.8 | 12.9 | 0.00 | 0.00 | 0.00 | 83 | 1016.8 |
| 20260507024557 | 16 | 360 | 4.8 | 12.9 | 0.00 | 0.00 | 0.00 | 81 | 1016.8 |
| 20260507023055 | 17 | 360 | 6.4 | 14.5 | 0.00 | 0.00 | 0.00 | 79 | 1016.7 |
| 20260507021622 | 17 | 279 | 12.9 | 20.9 | 0.00 | 0.00 | 0.00 | 76 | 1016.6 |
| 20260507020111 | 18 | 279 | 9.7 | 17.7 | 0.00 | 0.00 | 0.00 | 74 | 1016.5 |
| 20260507014620 | 18 | 271 | 9.7 | 19.3 | 0.00 | 0.00 | 0.00 | 72 | 1016.5 |
| 20260507013056 | 18 | 236 | 9.7 | 20.9 | 0.00 | 0.00 | 0.00 | 70 | 1016.4 |
| 20260507011600 | 18 | 228 | 14.5 | 20.9 | 0.00 | 0.00 | 0.00 | 69 | 1016.5 |
| 20260507010055 | 19 | 265 | 12.9 | 20.9 | 0.00 | 0.00 | 0.00 | 68 | 1016.3 |
| 20260507004554 | 19 | 238 | 14.5 | 25.7 | 0.00 | 0.00 | 0.00 | 69 | 1016.3 |
| 20260507003055 | 19 | 360 | 14.5 | 24.1 | 0.00 | 0.00 | 0.00 | 67 | 1016.3 |
| 20260507001605 | 20 | 288 | 14.5 | 25.7 | 0.00 | 0.00 | 0.00 | 68 | 1016.2 |
| 20260507000121 | 19 | 218 | 16.1 | 25.7 | 0.00 | 0.00 | 0.00 | 68 | 1016.1 |
| 20260506234613 | 20 | 296 | 14.5 | 24.1 | 0.00 | 0.00 | 0.00 | 67 | 1016.0 |
| 20260506233055 | 20 | 270 | 17.7 | 32.2 | 0.00 | 0.00 | 0.00 | 67 | 1016.0 |
| 20260506231555 | 20 | 236 | 17.7 | 29.0 | 0.00 | 0.00 | 0.00 | 66 | 1016.0 |
| 20260506224555 | 20 | 258 | 14.5 | 27.4 | 0.00 | 0.00 | 0.00 | 66 | 1016.2 |
| 20260506223103 | 20 | 240 | 19.3 | 30.6 | 0.00 | 0.00 | 0.00 | 68 | 1016.3 |
| 20260506221602 | 20 | 273 | 16.1 | 27.4 | 0.00 | 0.00 | 0.00 | 67 | 1016.4 |
| 20260506220056 | 20 | 250 | 16.1 | 29.0 | 0.00 | 0.00 | 0.00 | 67 | 1016.5 |
| 20260506214559 | 20 | 264 | 16.1 | 29.0 | 0.00 | 0.00 | 0.00 | 68 | 1016.7 |
| 20260506213100 | 19 | 234 | 14.5 | 30.6 | 0.00 | 0.00 | 0.00 | 68 | 1016.8 |
| 20260506211558 | 19 | 237 | 16.1 | 29.0 | 0.00 | 0.00 | 0.00 | 69 | 1017.0 |
| 20260506210054 | 19 | 225 | 19.3 | 29.0 | 0.00 | 0.00 | 0.00 | 68 | 1017.0 |
| 20260506204556 | 19 | 262 | 17.7 | 27.4 | 0.00 | 0.00 | 0.00 | 67 | 1017.1 |
| 20260506203055 | 19 | 239 | 17.7 | 29.0 | 0.00 | 0.00 | 0.00 | 67 | 1017.2 |
| 20260506201555 | 19 | 232 | 19.3 | 33.8 | 0.00 | 0.00 | 0.00 | 67 | 1017.2 |
| 20260506200054 | 20 | 279 | 17.7 | 27.4 | 0.00 | 0.00 | 0.00 | 66 | 1017.5 |
| 20260506194556 | 20 | 273 | 14.5 | 29.0 | 0.00 | 0.00 | 0.00 | 66 | 1017.4 |
| 20260506193100 | 20 | 245 | 12.9 | 25.7 | 0.00 | 0.00 | 0.00 | 66 | 1017.5 |
| 20260506191605 | 20 | 242 | 14.5 | 27.4 | 0.00 | 0.00 | 0.00 | 65 | 1017.6 |
| 20260506190056 | 19 | 247 | 12.9 | 22.5 | 0.00 | 0.00 | 0.00 | 68 | 1017.6 |
| 20260506184604 | 19 | 245 | 11.3 | 24.1 | 0.00 | 0.00 | 0.00 | 67 | 1017.7 |
| 20260506183104 | 19 | 269 | 11.3 | 22.5 | 0.00 | 0.00 | 0.00 | 65 | 1017.9 |
| 20260506181607 | 19 | 259 | 9.7 | 22.5 | 0.00 | 0.00 | 0.00 | 66 | 1017.9 |
| 20260506180057 | 19 | 226 | 9.7 | 17.7 | 0.00 | 0.00 | 0.00 | 64 | 1018.0 |
| 20260506174555 | 18 | 263 | 9.7 | 19.3 | 0.00 | 0.00 | 0.00 | 64 | 1018.1 |
| 20260506173122 | 18 | 292 | 3.2 | 16.1 | 0.00 | 0.00 | 0.00 | 65 | 1018.1 |
| 20260506171558 | 17 | 340 | 6.4 | 17.7 | 0.00 | 0.00 | 0.00 | 66 | 1018.3 |
| 20260506170106 | 17 | 350 | 4.8 | 14.5 | 0.00 | 0.00 | 0.00 | 67 | 1018.2 |
| 20260506164556 | 17 | 323 | 6.4 | 14.5 | 0.00 | 0.00 | 0.00 | 69 | 1018.2 |
| 20260506163057 | 16 | 270 | 4.8 | 14.5 | 0.00 | 0.00 | 0.00 | 70 | 1018.2 |
| 20260506161555 | 16 | 277 | 3.2 | 14.5 | 0.00 | 0.00 | 0.00 | 72 | 1018.2 |
| 20260506160057 | 16 | 334 | 4.8 | 9.7 | 0.00 | 0.00 | 0.00 | 70 | 1018.3 |
| 20260506154609 | 16 | 0 | 3.2 | 11.3 | 0.00 | 0.00 | 0.00 | 72 | 1018.2 |
| 20260506153054 | 16 | 337 | 3.2 | 8.0 | 0.00 | 0.00 | 0.00 | 73 | 1018.3 |
| 20260506151557 | 15 | 337 | 3.2 | 6.4 | 0.00 | 0.00 | 0.00 | 75 | 1018.4 |
| 20260506150055 | 15 | 0 | 3.2 | 8.0 | 0.00 | 0.00 | 0.00 | 75 | 1018.5 |
| 20260506144603 | 15 | 78 | 1.6 | 4.8 | 0.00 | 0.03 | 0.00 | 74 | 1018.3 |
| 20260506143055 | 15 | 83 | 1.6 | 4.8 | 0.00 | 0.03 | 0.00 | 74 | 1018.4 |
| 20260506141600 | 14 | 90 | 1.6 | 4.8 | 0.00 | 0.03 | 0.00 | 77 | 1018.3 |
| 20260506140057 | 13 | 62 | 1.6 | 4.8 | 0.00 | 0.03 | 0.00 | 81 | 1018.4 |
| 20260506134556 | 12 | 32 | 0.0 | 3.2 | 0.00 | 0.30 | 0.00 | 83 | 1018.2 |
| 20260506133104 | 12 | 0 | 0.0 | 3.2 | 0.00 | 0.30 | 0.00 | 83 | 1018.1 |
| 20260506131609 | 12 | 0 | 0.0 | 4.8 | 0.00 | 0.30 | 0.00 | 82 | 1017.9 |
| 20260506130119 | 12 | 69 | 1.6 | 4.8 | 0.00 | 0.30 | 0.00 | 82 | 1017.7 |